Startpagina
METAR-TAF:

METAR-TAF

Vliegvelden :

Flughafen Münster-Osnabrück

Münster-Osnabrück, Duitsland

breedte: 52-08N, lengte: 007-42E, hoogte: 48 m

Actueel weer

Dit bericht is 18 minuten geleden gemaakt, om 02:20 UTC
Wind 4 kt uit het noordoosten, variërend tussen het noorden en het oostzuidoosten
Temperatuur 0°C
Vochtigheid 86%
Druk 1032 hPa
Zicht 10 km of meer
geen wolken onder 1500 m en geen cumulonimbus

METAR: EDDG 180220Z 05004KT 360V110 CAVOK M00/M02 Q1032 NOSIG

Tijdstip: 03:38 (02:38 UTC)

Verwachting

Dit bericht is 3 uur en het 38 minuten geleden gemaakt, om 23:00 UTC
Verwachting geldig van 18 om 00 UTC tot 18 om 24 UTC
Wind 8 kt uit het oostnoordoosten
Zicht 10 km of meer
geen wolken onder 1500 m en geen cumulonimbus
Tijdelijke
van 18 om 00 UTC tot 18 om 06 UTC
Wind 3 kt uit het oostnoordoosten

TAF: EDDG 172300Z 1800/1824 06008KT CAVOK TEMPO 1800/1806 06003KT

Waarnemingen en weersverwachtingen van meer dan 4000 vliegvelden (METAR en TAF).

De beschikbare stations zijn de gele en rode punten op de kaart.

Ga met uw muis naar het station om de naam te zien.

Klik dan om waarnemingen en weersverwachtingen te zien.

kaart wijzigen: klik op de groene knoppen met een zwart kruis om in te zoomen, op de groene knop met een streepje om uit te zoomen of op de groene pijlen voor aangrenzende kaarten.


METAR-TAF: